Time;durP1;ratioP1;P1;durP2;ratioP2;P2;SDS_P1;SDS_P2;PMS_P1;PMS_P2;Temp;Humidity;BMP_temperature;BMP_pressure;BME280_temperature;BME280_humidity;BME280_pressure;Samples;Min_cycle;Max_cycle;Signal;HPM_P1;HPM_P2
2023/10/13 03:29:08;;;;;;;9.30;3.20;;;;;;;12.66;100.00;99135.20;106918;1305;544844;-46
2023/10/13 03:31:37;;;;;;;12.20;3.20;;;;;;;12.61;100.00;99141.38;107456;1295;22334;-54
2023/10/13 03:34:04;;;;;;;11.30;3.10;;;;;;;12.57;100.00;99144.43;107268;1295;22425;-44
2023/10/13 03:39:13;;;;;;;9.70;2.60;;;;;;;12.51;100.00;99143.42;107335;1313;22418;-47
2023/10/13 03:41:40;;;;;;;12.40;2.90;;;;;;;12.48;100.00;99136.09;107266;1290;121073;-48
2023/10/13 03:44:13;;;;;;;10.50;2.50;;;;;;;12.45;100.00;99136.08;107516;1311;22332;-49
2023/10/13 03:46:41;;;;;;;14.70;2.80;;;;;;;12.41;100.00;99132.81;107122;1292;22217;-46
2023/10/13 03:49:12;;;;;;;9.80;2.50;;;;;;;12.38;100.00;99132.70;107516;1292;22302;-47
2023/10/13 03:51:38;;;;;;;14.70;2.50;;;;;;;12.35;100.00;99132.91;107496;1311;22829;-49
2023/10/13 03:54:07;;;;;;;7.40;2.50;;;;;;;12.30;100.00;99131.23;107648;1292;23085;-47
2023/10/13 03:56:38;;;;;;;8.10;2.40;;;;;;;12.27;100.00;99134.63;107654;1292;22293;-49
2023/10/13 03:59:18;;;;;;;9.00;2.40;;;;;;;12.24;100.00;99134.48;107667;1310;22289;-54
2023/10/13 04:02:02;;;;;;;11.80;2.60;;;;;;;12.20;100.00;99129.06;107684;1288;22352;-50
2023/10/13 04:17:27;;;;;;;13.90;3.30;;;;;;;12.11;100.00;99106.33;107582;1310;22439;-51
2023/10/13 04:25:38;;;;;;;9.10;2.60;;;;;;;12.13;100.00;99103.75;107714;1310;22302;-52
2023/10/13 04:33:35;;;;;;;11.10;2.70;;;;;;;12.16;100.00;99101.92;107726;1306;22409;-54
2023/10/13 04:39:00;;;;;;;11.40;3.20;;;;;;;12.20;100.00;99103.96;107705;1310;22232;-46
2023/10/13 04:41:32;;;;;;;10.80;3.40;;;;;;;12.22;100.00;99103.47;107693;1288;22206;-51
2023/10/13 04:52:12;;;;;;;12.60;4.00;;;;;;;12.28;100.00;99114.33;107672;1310;22235;-51
2023/10/13 05:05:21;;;;;;;10.00;4.10;;;;;;;12.36;100.00;99107.47;107675;1310;22239;-48
2023/10/13 06:29:54;;;;;;;14.40;6.10;;;;;;;12.75;100.00;99155.08;107829;1305;22262;-48
2023/10/13 06:32:25;;;;;;;16.80;6.00;;;;;;;12.73;100.00;99152.91;107792;1308;22351;-54
2023/10/13 06:35:40;;;;;;;16.30;6.00;;;;;;;12.73;100.00;99151.50;107819;1304;22434;-52
2023/10/13 06:37:42;;;;;;;16.00;6.50;;;;;;;12.71;100.00;99144.95;107696;1308;22243;-50
2023/10/13 06:40:56;;;;;;;20.40;7.30;;;;;;;12.74;100.00;99145.29;107818;1308;22262;-51
2023/10/13 06:43:12;;;;;;;14.10;6.10;;;;;;;12.78;100.00;99147.10;107718;1308;22865;-56
2023/10/13 06:45:39;;;;;;;13.50;6.00;;;;;;;12.82;100.00;99151.55;107819;1308;22408;-52
2023/10/13 06:48:11;;;;;;;14.80;7.40;;;;;;;12.85;100.00;99149.44;107844;1288;22407;-51
2023/10/13 06:50:41;;;;;;;14.10;6.00;;;;;;;12.88;100.00;99149.27;107829;1308;22953;-50
2023/10/13 06:53:06;;;;;;;13.00;6.10;;;;;;;12.91;100.00;99157.71;107831;1308;22237;-49
2023/10/13 06:55:35;;;;;;;14.60;6.30;;;;;;;12.92;100.00;99158.33;107800;1292;22307;-49
2023/10/13 06:58:06;;;;;;;14.80;6.10;;;;;;;12.92;100.00;99162.70;107840;1308;22224;-47
2023/10/13 07:00:37;;;;;;;14.30;6.40;;;;;;;12.91;100.00;99158.36;107851;1292;22411;-54
2023/10/13 07:03:08;;;;;;;17.20;6.90;;;;;;;12.93;100.00;99161.08;107837;1308;23196;-51
2023/10/13 07:05:38;;;;;;;19.50;6.40;;;;;;;12.94;100.00;99162.61;107832;1302;22558;-49
2023/10/13 07:08:06;;;;;;;17.60;6.50;;;;;;;12.95;100.00;99165.48;107835;1291;22699;-47
2023/10/13 07:10:35;;;;;;;15.80;6.90;;;;;;;12.96;100.00;99164.55;107826;1286;22263;-52
2023/10/13 07:13:01;;;;;;;16.50;7.00;;;;;;;12.96;100.00;99163.86;107826;1308;22482;-50
2023/10/13 07:15:29;;;;;;;13.30;6.80;;;;;;;12.99;100.00;99162.96;107802;1286;22237;-53
2023/10/13 07:17:59;;;;;;;15.80;6.80;;;;;;;13.01;100.00;99165.64;107841;1308;22318;-53
2023/10/13 07:23:11;;;;;;;24.20;7.40;;;;;;;13.09;100.00;99168.48;107849;1308;22259;-50
2023/10/13 07:25:37;;;;;;;20.00;8.00;;;;;;;13.13;100.00;99169.77;107835;1308;22228;-47
2023/10/13 07:28:09;;;;;;;17.50;7.60;;;;;;;13.17;100.00;99169.67;107855;1289;22986;-52
2023/10/13 07:33:22;;;;;;;22.00;8.50;;;;;;;13.27;100.00;99160.22;107841;1308;22945;-54
2023/10/13 07:35:51;;;;;;;19.00;9.00;;;;;;;13.29;100.00;99157.21;107831;1301;22392;-51
2023/10/13 07:38:18;;;;;;;20.40;8.60;;;;;;;13.31;100.00;99147.09;107707;1291;22402;-48
2023/10/13 07:40:50;;;;;;;18.60;8.80;;;;;;;13.33;100.00;99145.19;107845;1308;22408;-49
2023/10/13 07:43:21;;;;;;;16.70;8.40;;;;;;;13.36;100.00;99142.30;107834;1308;22979;-50
2023/10/13 07:45:50;;;;;;;18.40;9.40;;;;;;;13.41;100.00;99142.02;107835;1308;22175;-49
2023/10/13 07:48:21;;;;;;;21.80;10.00;;;;;;;13.47;100.00;99141.39;107835;1292;23430;-46
2023/10/13 07:50:58;;;;;;;17.00;9.30;;;;;;;13.55;100.00;99143.16;107805;1287;22233;-51
2023/10/13 07:53:23;;;;;;;16.10;8.40;;;;;;;13.59;100.00;99141.29;107843;1308;22257;-50
2023/10/13 07:56:03;;;;;;;20.80;9.60;;;;;;;13.64;100.00;99144.64;107845;1285;22178;-49
2023/10/13 07:58:32;;;;;;;18.30;9.50;;;;;;;13.67;100.00;99143.88;107848;1308;22284;-46
2023/10/13 08:01:06;;;;;;;21.70;10.00;;;;;;;13.70;100.00;99142.25;107817;1289;22227;-47
2023/10/13 08:03:45;;;;;;;22.30;9.20;;;;;;;13.71;100.00;99147.09;107818;1308;22395;-47
2023/10/13 08:08:43;;;;;;;21.90;9.90;;;;;;;13.69;100.00;99139.66;107826;1308;22318;-48
2023/10/13 08:14:10;;;;;;;18.60;9.70;;;;;;;13.76;100.00;99136.89;107735;1307;22302;-53
2023/10/13 08:16:48;;;;;;;28.80;9.90;;;;;;;13.79;100.00;99131.77;107707;1309;22263;-49
2023/10/13 08:19:27;;;;;;;21.20;10.80;;;;;;;13.82;100.00;99131.33;107738;1288;22303;-52
2023/10/13 08:22:14;;;;;;;19.20;10.70;;;;;;;13.85;100.00;99126.92;107857;1308;23084;-50
2023/10/13 08:27:34;;;;;;;25.90;10.80;;;;;;;13.96;100.00;99129.30;107737;1301;22273;-51
2023/10/13 08:37:32;;;;;;;20.10;10.30;;;;;;;14.23;100.00;99120.89;108043;1306;22557;-53
2023/10/13 08:48:07;;;;;;;28.20;12.00;;;;;;;14.50;100.00;99116.91;108058;1301;22243;-54
2023/10/13 08:53:32;;;;;;;27.40;11.40;;;;;;;14.64;100.00;99114.16;108060;1306;22402;-56
2023/10/13 09:06:47;;;;;;;32.30;15.10;;;;;;;15.29;100.00;99105.29;108054;1307;22291;-47
2023/10/13 09:09:26;;;;;;;26.60;11.50;;;;;;;15.41;100.00;99102.43;108030;1307;22228;-50
2023/10/13 09:12:07;;;;;;;29.10;12.10;;;;;;;15.51;100.00;99100.94;108041;1307;22338;-53
2023/10/13 09:14:37;;;;;;;25.70;11.20;;;;;;;15.61;100.00;99100.31;107995;1307;22257;-47
2023/10/13 09:17:09;;;;;;;24.50;12.30;;;;;;;15.69;100.00;99102.23;108041;1288;23097;-54
2023/10/13 09:19:48;;;;;;;26.70;11.00;;;;;;;15.77;100.00;99103.73;108043;1285;23082;-52
2023/10/13 09:22:42;;;;;;;25.00;11.30;;;;;;;15.80;100.00;99098.00;108024;1289;22296;-48
2023/10/13 09:25:13;;;;;;;28.80;11.50;;;;;;;15.93;100.00;99100.84;107996;1297;22283;-53
2023/10/13 09:27:39;;;;;;;26.70;11.80;;;;;;;16.03;100.00;99104.10;108029;1288;22239;-48
2023/10/13 09:30:18;;;;;;;26.10;12.40;;;;;;;16.15;100.00;99104.36;108001;1285;23419;-48
2023/10/13 09:32:48;;;;;;;27.60;12.70;;;;;;;16.26;100.00;99100.98;108054;1307;22251;-44
2023/10/13 09:35:21;;;;;;;34.30;11.80;;;;;;;16.34;100.00;99098.37;108036;1298;22256;-51
2023/10/13 09:37:47;;;;;;;24.20;12.10;;;;;;;16.40;100.00;99096.17;107951;1307;22213;-52
2023/10/13 09:43:15;;;;;;;43.50;16.40;;;;;;;16.55;100.00;99095.83;107741;1295;23380;-54
2023/10/13 09:45:56;;;;;;;39.30;15.50;;;;;;;16.62;100.00;99094.70;108037;1285;22240;-50
2023/10/13 09:48:31;;;;;;;33.30;13.70;;;;;;;16.74;100.00;99092.62;108059;1306;22248;-51
2023/10/13 09:51:00;;;;;;;33.40;13.80;;;;;;;16.85;100.00;99088.14;107967;1306;22895;-51
2023/10/13 09:53:25;;;;;;;37.80;12.90;;;;;;;16.93;99.89;99090.50;108019;1304;22423;-46
2023/10/13 09:56:00;;;;;;;35.60;11.80;;;;;;;16.90;99.47;99090.80;108013;1285;22531;-43
2023/10/13 09:58:35;;;;;;;28.70;11.80;;;;;;;16.94;99.94;99089.73;107997;1288;22336;-51
2023/10/13 10:01:10;;;;;;;25.90;12.20;;;;;;;16.99;100.00;99087.02;108015;1299;22225;-55
2023/10/13 10:03:50;;;;;;;33.40;12.20;;;;;;;17.04;100.00;99084.29;107988;1306;22245;-49
2023/10/13 10:06:39;;;;;;;27.10;11.90;;;;;;;17.06;100.00;99080.40;108003;1288;22321;-47
2023/10/13 10:09:11;;;;;;;30.10;12.60;;;;;;;17.06;100.00;99073.11;108017;1307;22237;-50
2023/10/13 10:12:08;;;;;;;27.10;12.10;;;;;;;17.09;100.00;99069.70;108032;1285;22529;-48
2023/10/13 10:14:58;;;;;;;36.20;12.00;;;;;;;17.15;100.00;99066.89;108011;1307;22267;-50
2023/10/13 10:17:29;;;;;;;28.80;12.30;;;;;;;17.18;100.00;99070.15;108041;1288;22333;-49
2023/10/13 10:19:55;;;;;;;36.20;11.80;;;;;;;17.21;100.00;99068.09;107994;1306;22218;-51
2023/10/13 10:22:35;;;;;;;23.30;10.50;;;;;;;17.25;100.00;99067.05;108012;1307;22704;-50
2023/10/13 10:25:02;;;;;;;29.40;10.40;;;;;;;17.27;100.00;99059.95;108043;1307;22354;-50
2023/10/13 10:27:30;;;;;;;31.80;10.90;;;;;;;17.30;100.00;99050.64;108018;1286;22059;-53
2023/10/13 10:29:57;;;;;;;31.70;11.50;;;;;;;17.33;100.00;99049.23;107963;1288;22409;-51
2023/10/13 10:32:35;;;;;;;24.90;10.30;;;;;;;17.35;100.00;99045.48;108070;1306;22464;-50
2023/10/13 10:35:14;;;;;;;32.10;10.90;;;;;;;17.40;100.00;99046.24;108037;1288;22969;-45
2023/10/13 10:37:46;;;;;;;21.50;9.70;;;;;;;17.45;99.99;99037.83;108049;1302;22265;-50
2023/10/13 10:43:08;;;;;;;27.50;10.00;;;;;;;17.65;99.87;99029.87;108057;1306;22230;-48
2023/10/13 10:45:33;;;;;;;22.60;8.50;;;;;;;17.76;99.15;99024.45;108055;1288;23006;-50
2023/10/13 10:47:59;;;;;;;21.70;7.70;;;;;;;17.89;99.02;99019.60;108038;1306;22341;-54
2023/10/13 10:50:34;;;;;;;19.30;6.80;;;;;;;17.97;96.44;99013.09;108042;1287;22233;-47
2023/10/13 10:53:06;;;;;;;16.30;6.00;;;;;;;18.00;93.47;99012.39;108044;1288;22239;-45
2023/10/13 10:55:31;;;;;;;18.60;6.70;;;;;;;18.10;94.11;99010.61;108054;1288;22517;-43
2023/10/13 10:58:01;;;;;;;15.10;6.40;;;;;;;18.18;94.01;99010.41;108029;1306;23656;-44
2023/10/13 11:00:37;;;;;;;16.10;6.40;;;;;;;18.23;92.77;99004.30;108034;1306;23362;-44
2023/10/13 11:03:04;;;;;;;19.10;6.50;;;;;;;18.29;90.97;99006.08;107864;1299;22247;-48
2023/10/13 11:05:33;;;;;;;15.10;5.30;;;;;;;18.39;90.83;99007.48;108064;1306;22886;-48
2023/10/13 11:07:58;;;;;;;13.00;5.70;;;;;;;18.49;89.07;99001.42;107788;1291;22349;-46
2023/10/13 11:10:31;;;;;;;12.20;5.60;;;;;;;18.60;89.36;98998.61;108055;1306;22249;-53
2023/10/13 11:13:15;;;;;;;13.80;6.00;;;;;;;18.65;89.09;98998.19;108057;1288;22433;-52
2023/10/13 11:15:44;;;;;;;15.20;6.50;;;;;;;18.69;87.61;98994.61;108055;1306;22230;-56
2023/10/13 11:18:16;;;;;;;14.10;6.10;;;;;;;18.79;87.96;98991.18;108039;1302;23089;-50
2023/10/13 11:20:45;;;;;;;10.50;5.30;;;;;;;18.85;86.45;98990.46;108055;1306;22344;-53
2023/10/13 11:23:15;;;;;;;15.50;5.50;;;;;;;18.91;86.15;98983.09;108036;1288;22402;-48
2023/10/13 11:25:43;;;;;;;15.20;5.50;;;;;;;18.98;84.89;98984.97;108030;1306;22968;-47
2023/10/13 11:28:28;;;;;;;14.40;5.40;;;;;;;19.10;86.28;98980.40;108034;1306;22174;-51
2023/10/13 11:30:58;;;;;;;13.80;5.50;;;;;;;19.17;85.18;98981.67;108041;1306;22302;-50
2023/10/13 11:33:25;;;;;;;13.90;5.70;;;;;;;19.19;85.27;98978.71;108053;1299;22233;-41
2023/10/13 11:38:29;;;;;;;7.90;4.50;;;;;;;19.23;84.95;98972.83;108047;1306;22201;-42
2023/10/13 11:41:08;;;;;;;11.70;4.60;;;;;;;19.22;84.23;98972.52;108044;1287;22233;-46
2023/10/13 11:51:44;;;;;;;9.70;4.70;;;;;;;19.51;82.39;98955.83;108007;1306;22241;-47
2023/10/13 11:54:11;;;;;;;12.70;5.00;;;;;;;19.69;82.33;98953.36;107975;1289;22919;-50
2023/10/13 11:56:38;;;;;;;13.80;5.00;;;;;;;19.78;82.69;98956.30;107996;1307;23074;-45
2023/10/13 11:59:05;;;;;;;19.70;5.00;;;;;;;19.85;82.08;98955.43;108022;1288;22424;-42
2023/10/13 12:07:14;;;;;;;11.20;4.20;;;;;;;19.93;76.89;98954.27;108072;1306;22243;-47
2023/10/13 12:12:28;;;;;;;13.80;4.40;;;;;;;20.82;74.66;98955.21;108053;1306;22275;-48
2023/10/13 12:14:55;;;;;;;10.90;4.40;;;;;;;20.59;74.59;98951.90;108049;1301;23041;-43
2023/10/13 12:17:39;;;;;;;7.80;4.10;;;;;;;20.47;76.76;98945.42;108023;1301;22856;-45
2023/10/13 12:20:09;;;;;;;13.30;4.50;;;;;;;20.53;75.61;98941.95;108025;1306;22244;-46
2023/10/13 12:22:35;;;;;;;11.90;4.30;;;;;;;20.52;76.11;98937.24;108055;1282;23879;-42
2023/10/13 12:25:18;;;;;;;8.80;4.10;;;;;;;20.46;75.94;98931.32;108036;1306;22413;-43
2023/10/13 12:27:48;;;;;;;11.30;4.40;;;;;;;20.45;75.77;98920.73;108059;1306;22227;-49
2023/10/13 12:30:16;;;;;;;9.70;3.80;;;;;;;20.51;76.21;98919.20;108063;1306;22232;-42
2023/10/13 12:32:53;;;;;;;9.20;4.30;;;;;;;20.53;76.86;98923.86;108044;1306;22268;-45
2023/10/13 12:35:29;;;;;;;;;;;;;;;20.52;77.09;98923.15;108086;1288;22451;-44
2023/10/13 12:38:04;;;;;;;9.10;4.30;;;;;;;20.61;74.70;98917.08;108055;1306;22057;-41
2023/10/13 12:53:55;;;;;;;12.20;3.90;;;;;;;20.15;74.35;98905.56;108057;1298;22283;-45
2023/10/13 12:56:25;;;;;;;11.20;4.40;;;;;;;20.07;74.82;98899.30;107998;1289;22239;-48
2023/10/13 12:58:51;;;;;;;10.00;4.80;;;;;;;20.06;74.80;98889.77;108029;1288;23562;-47
2023/10/13 13:01:25;;;;;;;10.60;4.40;;;;;;;20.01;74.63;98888.72;108048;1306;23055;-46
2023/10/13 13:03:55;;;;;;;13.30;4.90;;;;;;;19.94;74.63;98891.13;108060;1306;22220;-41
2023/10/13 13:06:25;;;;;;;9.00;5.30;;;;;;;19.91;75.88;98896.44;108092;1289;22958;-41
2023/10/13 13:08:58;;;;;;;8.90;4.50;;;;;;;19.83;76.05;98900.23;108051;1303;22324;-45
2023/10/13 13:11:24;;;;;;;10.50;5.20;;;;;;;19.72;75.95;98900.77;107872;1306;22217;-48
2023/10/13 13:13:51;;;;;;;11.60;5.10;;;;;;;19.66;76.51;98898.39;108063;1306;23263;-45
2023/10/13 13:16:23;;;;;;;11.10;4.60;;;;;;;19.57;76.92;98897.28;108051;1287;22401;-43
2023/10/13 13:18:54;;;;;;;13.40;5.20;;;;;;;19.45;76.78;98894.95;108044;1306;22215;-45
2023/10/13 13:21:22;;;;;;;14.20;6.10;;;;;;;19.35;76.89;98895.35;108076;1306;22275;-48
2023/10/13 13:23:51;;;;;;;15.10;5.20;;;;;;;19.29;77.62;98893.49;108084;1292;22240;-48
2023/10/13 13:26:17;;;;;;;9.40;5.10;;;;;;;19.26;78.24;98899.77;108045;1306;22402;-48
2023/10/13 13:28:50;;;;;;;10.80;5.10;;;;;;;19.24;78.43;98896.30;108041;1306;22242;-44
2023/10/13 13:31:25;;;;;;;15.80;5.70;;;;;;;19.21;78.42;98895.17;107878;1296;22232;-46
2023/10/13 13:33:50;;;;;;;9.10;5.40;;;;;;;19.19;78.89;98891.09;108041;1292;22422;-48
2023/10/13 13:36:16;;;;;;;8.40;4.90;;;;;;;19.15;78.87;98885.52;108026;1300;22426;-45
2023/10/13 13:38:48;;;;;;;11.00;5.50;;;;;;;19.11;79.18;98881.94;107959;1290;22956;-48
2023/10/13 13:41:17;;;;;;;9.90;4.80;;;;;;;19.08;79.51;98874.70;108017;1307;22369;-43
2023/10/13 13:46:19;;;;;;;11.70;5.30;;;;;;;19.05;80.32;98875.38;107777;1307;22236;-43
2023/10/13 13:48:47;;;;;;;14.10;5.70;;;;;;;19.04;80.52;98871.77;107996;1307;22223;-43
2023/10/13 13:51:19;;;;;;;11.80;6.00;;;;;;;19.03;80.74;98870.45;108008;1307;22239;-47
2023/10/13 13:53:45;;;;;;;11.80;5.80;;;;;;;19.00;80.77;98862.14;107993;1291;22243;-45
2023/10/13 13:56:18;;;;;;;7.30;5.40;;;;;;;18.98;80.76;98857.07;108010;1306;22257;-47
2023/10/13 13:58:48;;;;;;;14.60;5.60;;;;;;;18.94;81.20;98851.57;108000;1307;22572;-47
2023/10/13 14:01:18;;;;;;;8.50;5.60;;;;;;;18.91;81.34;98846.14;108003;1291;23073;-42
2023/10/13 14:03:45;;;;;;;10.00;5.70;;;;;;;18.89;81.30;98841.63;108021;1298;22393;-48
2023/10/13 14:06:30;;;;;;;10.30;5.40;;;;;;;18.86;81.47;98834.43;108044;1288;22269;-47
2023/10/13 14:08:57;;;;;;;10.00;5.80;;;;;;;18.83;81.87;98832.40;108000;1307;22977;-42
2023/10/13 14:16:53;;;;;;;8.30;5.90;;;;;;;18.85;82.43;98820.36;108016;1306;22414;-40
2023/10/13 14:19:26;;;;;;;14.20;6.50;;;;;;;18.84;82.50;98812.90;108054;1288;22953;-40
2023/10/13 14:21:59;;;;;;;15.70;5.70;;;;;;;18.82;82.52;98811.38;108052;1299;23263;-43
2023/10/13 14:24:32;;;;;;;8.50;5.80;;;;;;;18.81;82.69;98814.98;108054;1301;22292;-41
2023/10/13 14:27:07;;;;;;;17.30;8.40;;;;;;;18.79;82.81;98818.14;108012;1288;22495;-40
2023/10/13 14:29:33;;;;;;;16.40;6.90;;;;;;;18.77;82.87;98812.13;108012;1288;22341;-39
2023/10/13 14:31:59;;;;;;;20.00;7.10;;;;;;;18.77;83.05;98817.14;107994;1306;22232;-43
2023/10/13 14:34:26;;;;;;;12.00;6.80;;;;;;;18.75;83.26;98815.28;108047;1306;22408;-49
2023/10/13 14:36:51;;;;;;;14.70;6.90;;;;;;;18.72;83.52;98814.59;108051;1299;22438;-45
2023/10/13 14:39:20;;;;;;;12.60;7.10;;;;;;;18.70;83.57;98813.23;108038;1306;22198;-43
2023/10/13 14:41:47;;;;;;;14.60;7.10;;;;;;;18.69;83.75;98810.49;108012;1306;22461;-43
2023/10/13 14:44:13;;;;;;;13.80;7.80;;;;;;;18.70;84.23;98805.23;107985;1307;22265;-45
2023/10/13 14:46:39;;;;;;;9.90;7.30;;;;;;;18.71;84.43;98801.76;108027;1306;22231;-44
2023/10/13 14:49:05;;;;;;;13.50;7.70;;;;;;;18.72;84.46;98804.44;107990;1307;22925;-47
2023/10/13 14:51:31;;;;;;;11.50;7.60;;;;;;;18.74;84.74;98800.52;108032;1286;22395;-47
2023/10/13 14:53:59;;;;;;;12.40;6.50;;;;;;;18.75;84.68;98798.87;107978;1301;22994;-44
2023/10/13 14:56:26;;;;;;;17.40;6.90;;;;;;;18.74;84.82;98799.82;107990;1307;22204;-47
2023/10/13 14:58:52;;;;;;;14.10;7.40;;;;;;;18.71;84.92;98798.13;108002;1307;22981;-43
2023/10/13 15:01:20;;;;;;;10.80;6.00;;;;;;;18.69;85.05;98795.13;108020;1307;22224;-44
2023/10/13 15:03:55;;;;;;;15.40;7.80;;;;;;;18.68;85.18;98789.20;107995;1289;22244;-46
2023/10/13 15:06:25;;;;;;;17.40;7.50;;;;;;;18.65;85.49;98782.91;108002;1292;22206;-51
2023/10/13 15:08:54;;;;;;;12.10;7.00;;;;;;;18.63;85.63;98779.09;108004;1307;22169;-46
2023/10/13 15:11:20;;;;;;;14.30;7.00;;;;;;;18.61;85.78;98779.27;107975;1307;22339;-47
2023/10/13 15:13:49;;;;;;;14.70;8.20;;;;;;;18.57;86.18;98775.36;108012;1307;22429;-42
2023/10/13 15:16:18;;;;;;;20.10;9.80;;;;;;;18.54;86.27;98776.21;108000;1288;22293;-45
2023/10/13 15:18:45;;;;;;;20.40;11.60;;;;;;;18.50;86.21;98775.34;108047;1298;22881;-43
2023/10/13 15:21:12;;;;;;;21.10;10.50;;;;;;;18.47;86.33;98769.13;108046;1289;22466;-45
2023/10/13 15:23:42;;;;;;;21.40;10.80;;;;;;;18.42;86.96;98765.95;108065;1289;22225;-45
2023/10/13 15:26:14;;;;;;;25.60;11.10;;;;;;;18.40;86.89;98769.37;108029;1306;23405;-47
2023/10/13 15:28:48;;;;;;;17.40;9.60;;;;;;;18.37;86.99;98762.89;108042;1289;22517;-51
2023/10/13 15:31:25;;;;;;;20.10;10.90;;;;;;;18.35;87.16;98757.66;108006;1304;22247;-43
2023/10/13 15:33:52;;;;;;;;;;;;;;;18.32;87.16;98751.83;108012;1298;22386;-43
2023/10/13 15:36:19;;;;;;;10.30;7.10;;;;;;;18.29;87.81;98745.92;107980;1307;22238;-43
2023/10/13 15:38:46;;;;;;;13.50;7.50;;;;;;;18.26;87.55;98747.13;107990;1298;22331;-50
2023/10/13 15:41:12;;;;;;;12.20;6.80;;;;;;;18.23;87.62;98748.23;107975;1287;22359;-46
2023/10/13 15:43:39;;;;;;;9.10;7.00;;;;;;;18.21;87.94;98750.60;107804;1307;196064;-46
2023/10/13 15:46:15;;;;;;;10.50;6.90;;;;;;;18.18;88.14;98742.58;107988;1295;22261;-43
2023/10/13 15:48:41;;;;;;;14.70;7.60;;;;;;;18.14;88.21;98733.75;107962;1288;22899;-50
2023/10/13 15:51:12;;;;;;;11.00;7.10;;;;;;;18.11;88.42;98737.92;107972;1299;22299;-45
2023/10/13 15:53:37;;;;;;;23.20;13.00;;;;;;;18.08;88.58;98735.34;107991;1289;22366;-48
2023/10/13 15:56:06;;;;;;;17.40;9.40;;;;;;;18.07;88.84;98736.75;108018;1296;23227;-43
2023/10/13 15:58:31;;;;;;;13.00;7.00;;;;;;;18.02;89.04;98732.84;107985;1302;22245;-46
2023/10/13 16:00:57;;;;;;;10.90;6.40;;;;;;;17.99;89.10;98723.61;107938;1299;22448;-47
2023/10/13 16:03:27;;;;;;;13.90;6.40;;;;;;;17.96;89.22;98723.14;107956;1299;23416;-45
2023/10/13 16:05:52;;;;;;;12.40;6.30;;;;;;;17.94;89.39;98716.39;107930;1289;22196;-43
2023/10/13 16:08:18;;;;;;;13.80;6.10;;;;;;;17.91;89.56;98713.22;107967;1294;23045;-50
2023/10/13 16:10:44;;;;;;;8.90;5.70;;;;;;;17.86;89.83;98715.59;107986;1286;22250;-42
2023/10/13 16:13:15;;;;;;;9.00;6.80;;;;;;;17.82;90.15;98716.34;107950;1307;22218;-45
2023/10/13 16:15:47;;;;;;;12.60;7.30;;;;;;;17.78;90.13;98718.80;107941;1299;22200;-47
2023/10/13 16:18:12;;;;;;;14.20;6.50;;;;;;;17.75;90.57;98712.38;108016;1286;22974;-46
2023/10/13 16:20:38;;;;;;;12.30;6.20;;;;;;;17.71;90.81;98704.61;108035;1288;23070;-40
2023/10/13 16:23:05;;;;;;;10.80;6.00;;;;;;;17.68;90.76;98702.90;108011;1299;22245;-45
2023/10/13 16:25:30;;;;;;;12.60;6.40;;;;;;;17.64;90.97;98701.27;108000;1289;22239;-42
2023/10/13 16:27:55;;;;;;;10.00;6.40;;;;;;;17.60;90.92;98696.88;107971;1307;22146;-48
2023/10/13 16:30:21;;;;;;;11.90;6.50;;;;;;;17.56;91.21;98690.52;108001;1307;22367;-48
2023/10/13 16:32:46;;;;;;;16.60;7.80;;;;;;;17.53;91.38;98688.71;107982;1288;22415;-41
2023/10/13 16:35:18;;;;;;;14.40;7.40;;;;;;;17.51;91.63;98688.54;108000;1307;22888;-46
2023/10/13 16:37:50;;;;;;;13.60;7.70;;;;;;;17.49;92.18;98682.95;107999;1307;23199;-45
2023/10/13 16:40:18;;;;;;;17.00;7.60;;;;;;;17.46;92.20;98677.37;108013;1291;22751;-43
2023/10/13 16:42:44;;;;;;;16.60;7.20;;;;;;;17.44;92.51;98676.27;107877;1285;22923;-42
2023/10/13 16:45:19;;;;;;;12.40;7.00;;;;;;;17.42;92.42;98678.18;108062;1306;22214;-44
2023/10/13 16:47:44;;;;;;;10.50;6.60;;;;;;;17.40;93.04;98680.02;108008;1283;23326;-46
2023/10/13 16:50:10;;;;;;;11.50;5.80;;;;;;;17.39;92.86;98677.77;108017;1298;22217;-46
2023/10/13 16:52:36;;;;;;;13.40;6.40;;;;;;;17.38;93.14;98682.45;108056;1288;22240;-46
2023/10/13 16:55:03;;;;;;;8.90;7.00;;;;;;;17.38;93.89;98678.24;108044;1306;22229;-47
2023/10/13 16:57:28;;;;;;;15.70;7.80;;;;;;;17.38;93.94;98672.54;108005;1306;22322;-45
2023/10/13 16:59:53;;;;;;;18.20;10.90;;;;;;;17.40;94.15;98675.40;107962;1299;23078;-43
2023/10/13 17:02:19;;;;;;;18.30;9.50;;;;;;;17.39;94.18;98676.91;107975;1307;22325;-41
2023/10/13 17:04:44;;;;;;;13.80;8.20;;;;;;;17.40;93.75;98675.92;107984;1285;22236;-47
2023/10/13 17:07:12;;;;;;;12.40;8.00;;;;;;;17.40;93.65;98676.83;107965;1302;23294;-50
2023/10/13 17:09:38;;;;;;;18.90;9.10;;;;;;;17.40;93.99;98674.56;107984;1307;22700;-45
2023/10/13 17:12:03;;;;;;;17.00;8.20;;;;;;;17.40;94.02;98668.17;107964;1307;22235;-46
2023/10/13 17:14:29;;;;;;;15.70;7.90;;;;;;;17.38;94.01;98662.69;107967;1307;22222;-43
2023/10/13 17:16:57;;;;;;;13.20;7.30;;;;;;;17.35;94.45;98657.50;107952;1285;22962;-42
2023/10/13 17:19:23;;;;;;;14.70;7.40;;;;;;;17.32;94.49;98655.63;107974;1289;22253;-42
2023/10/13 17:21:48;;;;;;;13.10;7.60;;;;;;;17.32;94.35;98654.36;107993;1307;22217;-41
2023/10/13 17:24:15;;;;;;;16.60;7.10;;;;;;;17.30;95.09;98654.60;107973;1285;22234;-48
2023/10/13 17:26:40;;;;;;;13.50;6.90;;;;;;;17.27;94.96;98656.72;107974;1307;22279;-47
2023/10/13 17:29:09;;;;;;;12.40;6.00;;;;;;;17.25;95.71;98649.15;107974;1296;22721;-44
2023/10/13 17:31:35;;;;;;;11.00;6.80;;;;;;;17.23;96.23;98647.20;107955;1307;22986;-44
2023/10/13 17:34:02;;;;;;;10.60;7.00;;;;;;;17.22;95.78;98652.10;107935;1307;22280;-44
2023/10/13 17:36:29;;;;;;;13.60;6.60;;;;;;;17.20;95.45;98649.95;107976;1288;22114;-50
2023/10/13 17:38:55;;;;;;;14.10;7.10;;;;;;;17.18;95.93;98648.02;107707;1307;22235;-49
2023/10/13 17:41:23;;;;;;;12.90;6.90;;;;;;;17.15;96.41;98645.25;107982;1307;22207;-50
2023/10/13 17:43:48;;;;;;;13.60;7.60;;;;;;;17.13;96.69;98641.79;107963;1307;22222;-49
2023/10/13 17:46:14;;;;;;;13.70;6.90;;;;;;;17.10;97.13;98636.89;107949;1289;22487;-48
2023/10/13 17:48:40;;;;;;;16.60;7.10;;;;;;;17.07;97.47;98636.27;107981;1302;23120;-52
2023/10/13 17:51:08;;;;;;;10.80;6.90;;;;;;;17.05;97.70;98633.11;107979;1285;22336;-52
2023/10/13 17:53:34;;;;;;;13.60;6.90;;;;;;;17.04;98.31;98635.89;107980;1307;22242;-48
2023/10/13 17:56:12;;;;;;;12.70;7.70;;;;;;;17.04;98.05;98639.23;107998;1289;22215;-49
2023/10/13 17:58:41;;;;;;;16.20;6.80;;;;;;;17.02;99.15;98636.95;107992;1288;22218;-51
2023/10/13 18:01:11;;;;;;;13.50;7.40;;;;;;;17.01;99.19;98635.83;107779;1306;22292;-54
2023/10/13 18:03:39;;;;;;;11.50;6.30;;;;;;;17.01;98.63;98635.64;107889;1306;22418;-48
2023/10/13 18:06:04;;;;;;;21.10;8.00;;;;;;;16.99;98.63;98633.98;107802;1307;22400;-56
2023/10/13 18:08:31;;;;;;;11.80;7.50;;;;;;;16.98;99.07;98633.73;107964;1307;22185;-52
2023/10/13 18:10:58;;;;;;;12.10;6.90;;;;;;;16.99;99.74;98629.48;107987;1304;22265;-49
2023/10/13 18:13:24;;;;;;;15.00;6.00;;;;;;;16.99;99.52;98629.79;108018;1285;22842;-53
2023/10/13 18:15:49;;;;;;;11.10;6.10;;;;;;;16.99;99.10;98624.13;108004;1305;22259;-48
2023/10/13 18:18:16;;;;;;;12.80;6.80;;;;;;;16.97;99.03;98625.32;107987;1307;23393;-51
2023/10/13 18:20:41;;;;;;;13.70;6.70;;;;;;;16.94;99.98;98620.88;107993;1307;22285;-45
2023/10/13 18:23:11;;;;;;;12.40;5.50;;;;;;;16.95;99.93;98622.22;107995;1307;22313;-50
2023/10/13 18:25:42;;;;;;;13.30;6.40;;;;;;;16.95;99.35;98617.27;107998;1307;22249;-47
2023/10/13 18:28:10;;;;;;;13.90;6.30;;;;;;;16.94;99.11;98612.59;107983;1285;23169;-53
2023/10/13 18:30:36;;;;;;;16.00;6.60;;;;;;;16.92;99.65;98612.22;108015;1288;22303;-47
2023/10/13 18:33:01;;;;;;;11.80;6.70;;;;;;;16.90;99.91;98607.21;108009;1289;23125;-50
2023/10/13 18:35:26;;;;;;;15.60;6.10;;;;;;;16.91;99.48;98604.69;108017;1285;22219;-50